Hovedside
METAR-TAF:

METAR-TAF

Lufthavner :

Borlänge, Sverige

Dala lufthavn

breddegrad: 60-26N, lengdegrad: 015-31E, høyde over havet: 145 m

Gjeldene værobservasjon

Denne rapporten ble laget for 40 minutter siden, klokken 13:50 UTC
Vind 7 kt fra Øst
Temperatur -5°C
Luftfuktighet 100%
Trykk 1006 hPa
Sikt: 2000 m
lett snø

METAR: ESSD 221350Z 10007KT 2000 -SN VV007 M05/M05 Q1006

Tid: 15:30 (14:30 UTC)

Varsel

Denne rapporten ble laget for 3 timer og 0 minutter siden, klokken 11:30 UTC
Varsel gyldig fra 22. klokken 12 UTC til 22. klokken 20 UTC
Vind 2 kt fra skiftende retning
Sikt: 5000 m
Overskyet i en høyde av 200 ft
lett snø, dis
Blir
fra 22. klokken 12 UTC til 22. klokken 13 UTC
Vind 12 kt fra Øst
Sikt: 1400 m
i en høyde av 800 ft
snø
Midlertidig
fra 22. klokken 12 UTC til 22. klokken 20 UTC
Sikt: 5000 m
i en høyde av 1500 ft
lett snø

TAF: ESSD 221130Z 2212/2220 VRB02KT 5000 -SN BR OVC002 BECMG 2212/2213 10012KT 1400 SN VV008 TEMPO 2212/2220 5000 -SN VV015

Værobservasjoner og værvarsel for over 4000 flyplasser (METAR- og TAF-rapporter).

Tilgjengelige stasjoner er representert av de røde og gule prikkene på kartet.

Hold musepekeren over prikken for å se navnet på stasjonen.

Klikk så for å se værobservasjoner og -varsler.

For å forandre kartet kan du klikke på den grønne knappen med svart kryss for å zoome inn, på den grønne knappen med strek for å zoome ut, eller på de grønne pilene for å se tilstøtende kart.


METAR-TAF: